Time;durP1;ratioP1;P1;durP2;ratioP2;P2;SDS_P1;SDS_P2;PMS_P1;PMS_P2;Temp;Humidity;BMP_temperature;BMP_pressure;BME280_temperature;BME280_humidity;BME280_pressure;Samples;Min_cycle;Max_cycle;Signal;HPM_P1;HPM_P2
2023/10/03 06:08:01;;;;;;;27.25;18.95;;;;;;;;;;5114801;22;20057;-89
2023/10/03 06:10:29;;;;;;;27.83;19.35;;;;;;;;;;5025483;28;20038;-87
2023/10/03 06:12:55;;;;;;;26.50;19.23;;;;;;;;;;5018617;28;20080;-86
2023/10/03 06:15:20;;;;;;;32.20;20.67;;;;;;;;;;5013472;28;20034;-84
2023/10/03 06:17:46;;;;;;;29.67;21.27;;;;;;;;;;5032972;28;20116;-87
2023/10/03 06:20:14;;;;;;;30.35;20.90;;;;;;;;;;5033365;28;20021;-84
2023/10/03 06:22:41;;;;;;;28.83;20.20;;;;;;;;;;5033336;28;20388;-86
2023/10/03 06:25:07;;;;;;;29.77;19.65;;;;;;;;;;5024378;28;20267;-86
2023/10/03 06:27:33;;;;;;;34.75;21.48;;;;;;;;;;5011617;28;20568;-87
2023/10/03 06:29:58;;;;;;;27.58;19.50;;;;;;;;;;5029840;28;20112;-86
2023/10/03 06:32:24;;;;;;;33.70;22.05;;;;;;;;;;5033376;28;20025;-86
2023/10/03 06:34:50;;;;;;;30.40;20.58;;;;;;;;;;5033036;28;20456;-86
2023/10/03 06:37:16;;;;;;;26.65;18.90;;;;;;;;;;5031632;28;20112;-85
2023/10/03 06:39:42;;;;;;;27.88;19.98;;;;;;;;;;5033166;28;20021;-85
2023/10/03 06:42:07;;;;;;;30.63;20.58;;;;;;;;;;5025014;28;20037;-86
2023/10/03 06:44:36;;;;;;;29.45;19.38;;;;;;;;;;5032996;28;20143;-85
2023/10/03 06:47:03;;;;;;;33.97;20.40;;;;;;;;;;5033063;28;20029;-85
2023/10/03 06:49:29;;;;;;;34.03;21.30;;;;;;;;;;5033157;28;20029;-86
2023/10/03 06:51:57;;;;;;;30.70;20.35;;;;;;;;;;5034155;28;20029;-86
2023/10/03 06:54:24;;;;;;;29.67;19.25;;;;;;;;;;5036760;28;20061;-85
2023/10/03 06:56:50;;;;;;;32.42;22.20;;;;;;;;;;5036524;28;20464;-87
2023/10/03 06:59:16;;;;;;;37.67;21.52;;;;;;;;;;5036712;28;20021;-86
2023/10/03 07:01:42;;;;;;;32.55;19.88;;;;;;;;;;5036964;28;20029;-84
2023/10/03 07:04:07;;;;;;;30.33;20.58;;;;;;;;;;5036516;28;20037;-85
2023/10/03 07:06:33;;;;;;;36.10;20.95;;;;;;;;;;5036460;28;20049;-85
2023/10/03 07:09:10;;;;;;;28.90;18.35;;;;;;;;;;5036666;28;20025;-85
2023/10/03 07:11:36;;;;;;;27.27;19.13;;;;;;;;;;5036796;28;20034;-84
2023/10/03 07:14:01;;;;;;;27.40;18.75;;;;;;;;;;5036318;28;20435;-85
2023/10/03 07:16:30;;;;;;;31.17;18.55;;;;;;;;;;5036513;28;20029;-84
2023/10/03 07:18:55;;;;;;;27.43;18.10;;;;;;;;;;5036412;28;20032;-85
2023/10/03 07:21:22;;;;;;;26.63;17.35;;;;;;;;;;5036138;28;20025;-83
2023/10/03 07:23:47;;;;;;;33.03;20.35;;;;;;;;;;5036201;28;20499;-85
2023/10/03 07:26:13;;;;;;;31.65;20.70;;;;;;;;;;5036010;28;20057;-85
2023/10/03 07:28:40;;;;;;;30.77;20.35;;;;;;;;;;5035762;28;20511;-84
2023/10/03 07:31:12;;;;;;;32.15;20.55;;;;;;;;;;5036025;28;20026;-90
2023/10/03 07:33:38;;;;;;;28.58;19.08;;;;;;;;;;5035877;28;20025;-85
2023/10/03 07:36:06;;;;;;;36.17;21.45;;;;;;;;;;5025506;28;20092;-85
2023/10/03 07:38:32;;;;;;;27.40;19.10;;;;;;;;;;5016061;28;20053;-84
2023/10/03 07:40:58;;;;;;;31.77;21.98;;;;;;;;;;5016005;28;20417;-86
2023/10/03 07:43:24;;;;;;;27.40;20.73;;;;;;;;;;5016146;28;20113;-85
2023/10/03 07:45:50;;;;;;;24.90;18.08;;;;;;;;;;5016120;28;20120;-84
2023/10/03 07:48:15;;;;;;;28.02;19.15;;;;;;;;;;5014928;28;20118;-88
2023/10/03 07:50:43;;;;;;;32.80;21.23;;;;;;;;;;5028045;28;20025;-86
2023/10/03 07:53:12;;;;;;;28.17;19.85;;;;;;;;;;5035645;28;20026;-87
2023/10/03 07:55:41;;;;;;;;;;;;;;;;;;5036135;28;20384;-86
2023/10/03 07:58:06;;;;;;;32.77;19.60;;;;;;;;;;5035814;28;19913;-87
2023/10/03 08:00:33;;;;;;;25.83;18.00;;;;;;;;;;5035948;28;20476;-83
2023/10/03 08:02:58;;;;;;;31.95;20.10;;;;;;;;;;5035674;28;20438;-83
2023/10/03 10:05:21;;;;;;;29.50;17.17;;;;;;;;;;5017230;28;20560;-81
2023/10/03 10:08:00;;;;;;;26.92;17.10;;;;;;;;;;4993045;28;20053;-78
2023/10/03 10:10:26;;;;;;;29.50;16.85;;;;;;;;;;4994224;28;20113;-79
2023/10/03 10:13:24;;;;;;;29.05;17.23;;;;;;;;;;4994007;28;20384;-77
2023/10/03 10:16:07;;;;;;;24.13;16.30;;;;;;;;;;4971939;28;20089;-83
2023/10/03 10:18:45;;;;;;;28.38;16.83;;;;;;;;;;4994365;28;20512;-83
2023/10/03 10:21:31;;;;;;;25.60;16.25;;;;;;;;;;4994495;28;20085;-78
2023/10/03 10:24:23;;;;;;;28.80;16.92;;;;;;;;;;4993844;28;20042;-79
2023/10/03 10:26:52;;;;;;;25.15;16.55;;;;;;;;;;4993688;28;20121;-81
2023/10/03 10:29:24;;;;;;;26.88;16.77;;;;;;;;;;4998346;28;20424;-80
2023/10/03 10:31:57;;;;;;;27.75;16.10;;;;;;;;;;4996678;28;20035;-81
2023/10/03 10:34:40;;;;;;;26.92;16.33;;;;;;;;;;4998160;28;20033;-82
2023/10/03 10:37:09;;;;;;;29.90;16.73;;;;;;;;;;4997839;28;20045;-81
2023/10/03 10:39:53;;;;;;;25.38;16.83;;;;;;;;;;4998147;28;20488;-84
2023/10/03 10:42:25;;;;;;;29.13;15.80;;;;;;;;;;4997796;28;20035;-84
2023/10/03 10:45:03;;;;;;;28.38;17.17;;;;;;;;;;4997790;28;20022;-84
2023/10/03 10:47:31;;;;;;;29.60;17.55;;;;;;;;;;4997794;28;20069;-82
2023/10/03 10:50:00;;;;;;;28.13;17.35;;;;;;;;;;4996502;28;20141;-81
2023/10/03 10:52:29;;;;;;;26.73;17.38;;;;;;;;;;4997787;28;20049;-79
2023/10/03 10:54:56;;;;;;;27.98;17.42;;;;;;;;;;4997638;28;20420;-83
2023/10/03 10:57:26;;;;;;;28.50;16.75;;;;;;;;;;4996365;28;20029;-85
2023/10/03 10:59:53;;;;;;;26.80;16.90;;;;;;;;;;4997565;28;20034;-85
2023/10/03 11:02:21;;;;;;;24.95;17.05;;;;;;;;;;4997590;28;20112;-85
2023/10/03 11:04:58;;;;;;;28.95;17.15;;;;;;;;;;4997371;28;20034;-84
2023/10/03 11:07:26;;;;;;;29.23;17.40;;;;;;;;;;4997172;28;20030;-83
2023/10/03 11:09:54;;;;;;;29.48;18.50;;;;;;;;;;4997668;28;20022;-83
2023/10/03 11:12:24;;;;;;;28.45;17.73;;;;;;;;;;4997243;28;20061;-84
2023/10/03 11:14:49;;;;;;;35.60;19.23;;;;;;;;;;4997141;28;20421;-84
2023/10/03 11:17:15;;;;;;;27.88;17.33;;;;;;;;;;4997235;28;20032;-84
2023/10/03 11:19:41;;;;;;;30.67;18.90;;;;;;;;;;4997496;28;20036;-84
2023/10/03 11:22:08;;;;;;;28.83;17.40;;;;;;;;;;4997058;28;20030;-81
2023/10/03 11:24:38;;;;;;;28.80;18.55;;;;;;;;;;4997052;28;20026;-83
2023/10/03 11:27:03;;;;;;;30.98;18.55;;;;;;;;;;4996902;28;20153;-84
2023/10/03 11:29:45;;;;;;;33.80;18.25;;;;;;;;;;4997072;28;20465;-82
2023/10/03 11:32:33;;;;;;;30.33;21.05;;;;;;;;;;4996648;28;20548;-87
2023/10/03 11:35:14;;;;;;;32.50;18.98;;;;;;;;;;4996746;28;20057;-84
2023/10/03 11:37:43;;;;;;;27.10;17.58;;;;;;;;;;4996821;28;20034;-83
2023/10/03 11:40:14;;;;;;;32.00;20.58;;;;;;;;;;4995732;28;20377;-84
2023/10/03 11:42:58;;;;;;;27.67;17.85;;;;;;;;;;4996811;28;20037;-85
